Terminal Aerodrome Forecast
Issued by NWS

Home | Current Version | Previous Version | Text Only | Print | Product List | Glossary On
Versions: 1 2 3 4 5 6 7 8 9 10 11 12
000
FTUS42 TJSJ 291700
TAFKPK
TAF
TKPK 291735Z 2918/3018 08012KT P6SM FEW024
     FM300000 07007KT P6SM SCT250
     FM301500 08012KT P6SM SCT250=

USA.gov is the U.S. government's official web portal to all federal, state and local government web resources and services.